sensor_id;sensor_type;location;lat;lon;timestamp;temperature;humidity
51619;DHT22;38518;53.164;5.430;2023-07-30T00:02:17;18.10;99.90
51619;DHT22;38518;53.164;5.430;2023-07-30T00:04:47;18.10;99.90
51619;DHT22;38518;53.164;5.430;2023-07-30T00:07:13;18.00;99.90
51619;DHT22;38518;53.164;5.430;2023-07-30T00:09:39;18.00;99.90
51619;DHT22;38518;53.164;5.430;2023-07-30T00:12:06;18.00;99.90
51619;DHT22;38518;53.164;5.430;2023-07-30T00:14:32;18.00;99.90
51619;DHT22;38518;53.164;5.430;2023-07-30T00:16:58;18.00;99.90
51619;DHT22;38518;53.164;5.430;2023-07-30T00:19:23;18.00;99.90
51619;DHT22;38518;53.164;5.430;2023-07-30T00:21:49;18.00;99.90
51619;DHT22;38518;53.164;5.430;2023-07-30T00:24:15;18.00;99.90
51619;DHT22;38518;53.164;5.430;2023-07-30T00:26:40;18.10;99.90
51619;DHT22;38518;53.164;5.430;2023-07-30T00:29:06;18.10;99.90
51619;DHT22;38518;53.164;5.430;2023-07-30T00:31:32;18.10;99.90
51619;DHT22;38518;53.164;5.430;2023-07-30T00:33:58;18.10;99.90
51619;DHT22;38518;53.164;5.430;2023-07-30T00:36:23;18.20;99.90
51619;DHT22;38518;53.164;5.430;2023-07-30T00:38:49;18.20;99.90
51619;DHT22;38518;53.164;5.430;2023-07-30T00:41:15;18.20;99.90
51619;DHT22;38518;53.164;5.430;2023-07-30T00:43:40;18.20;99.90
51619;DHT22;38518;53.164;5.430;2023-07-30T00:46:06;18.20;98.80
51619;DHT22;38518;53.164;5.430;2023-07-30T00:48:32;18.20;96.30
51619;DHT22;38518;53.164;5.430;2023-07-30T00:50:59;18.30;95.60
51619;DHT22;38518;53.164;5.430;2023-07-30T00:53:26;18.30;95.10
51619;DHT22;38518;53.164;5.430;2023-07-30T00:55:53;18.30;93.40
51619;DHT22;38518;53.164;5.430;2023-07-30T00:58:20;18.30;92.90
51619;DHT22;38518;53.164;5.430;2023-07-30T01:00:47;18.30;89.60
51619;DHT22;38518;53.164;5.430;2023-07-30T01:03:12;18.20;88.40
51619;DHT22;38518;53.164;5.430;2023-07-30T01:05:38;18.20;86.70
51619;DHT22;38518;53.164;5.430;2023-07-30T01:08:04;18.20;88.60
51619;DHT22;38518;53.164;5.430;2023-07-30T01:10:32;18.20;87.80
51619;DHT22;38518;53.164;5.430;2023-07-30T01:13:01;18.10;87.70
51619;DHT22;38518;53.164;5.430;2023-07-30T01:15:29;18.10;88.60
51619;DHT22;38518;53.164;5.430;2023-07-30T01:17:55;18.10;91.20
51619;DHT22;38518;53.164;5.430;2023-07-30T01:20:21;18.10;90.90
51619;DHT22;38518;53.164;5.430;2023-07-30T01:22:47;18.00;91.10
51619;DHT22;38518;53.164;5.430;2023-07-30T01:25:16;18.00;92.00
51619;DHT22;38518;53.164;5.430;2023-07-30T01:27:48;18.00;94.20
51619;DHT22;38518;53.164;5.430;2023-07-30T01:30:25;18.00;95.40
51619;DHT22;38518;53.164;5.430;2023-07-30T01:32:52;18.00;96.70
51619;DHT22;38518;53.164;5.430;2023-07-30T01:35:21;18.00;99.90
51619;DHT22;38518;53.164;5.430;2023-07-30T01:37:50;18.00;99.90
51619;DHT22;38518;53.164;5.430;2023-07-30T01:40:17;18.00;99.90
51619;DHT22;38518;53.164;5.430;2023-07-30T01:42:43;18.00;99.90
51619;DHT22;38518;53.164;5.430;2023-07-30T01:45:08;17.90;99.90
51619;DHT22;38518;53.164;5.430;2023-07-30T01:47:34;18.00;99.90
51619;DHT22;38518;53.164;5.430;2023-07-30T01:50:00;17.90;99.90
51619;DHT22;38518;53.164;5.430;2023-07-30T01:52:25;18.00;99.90
51619;DHT22;38518;53.164;5.430;2023-07-30T01:54:51;17.90;99.90
51619;DHT22;38518;53.164;5.430;2023-07-30T01:57:17;17.90;99.90
51619;DHT22;38518;53.164;5.430;2023-07-30T01:59:43;17.90;99.90
51619;DHT22;38518;53.164;5.430;2023-07-30T02:02:08;18.00;99.90
51619;DHT22;38518;53.164;5.430;2023-07-30T02:04:34;17.90;99.90
51619;DHT22;38518;53.164;5.430;2023-07-30T02:07:00;17.90;99.90
51619;DHT22;38518;53.164;5.430;2023-07-30T02:09:25;17.90;96.20
51619;DHT22;38518;53.164;5.430;2023-07-30T02:11:51;17.90;66.80
51619;DHT22;38518;53.164;5.430;2023-07-30T02:14:20;17.90;40.70
51619;DHT22;38518;53.164;5.430;2023-07-30T02:16:46;17.90;25.40
51619;DHT22;38518;53.164;5.430;2023-07-30T02:19:11;17.90;14.60
51619;DHT22;38518;53.164;5.430;2023-07-30T02:21:37;17.90;6.70
51619;DHT22;38518;53.164;5.430;2023-07-30T02:24:10;17.90;1.40
51619;DHT22;38518;53.164;5.430;2023-07-30T02:26:40;17.90;1.00
51619;DHT22;38518;53.164;5.430;2023-07-30T02:29:06;17.90;1.00
51619;DHT22;38518;53.164;5.430;2023-07-30T02:31:32;17.90;1.00
51619;DHT22;38518;53.164;5.430;2023-07-30T02:33:58;18.00;1.00
51619;DHT22;38518;53.164;5.430;2023-07-30T02:36:24;18.00;1.00
51619;DHT22;38518;53.164;5.430;2023-07-30T02:38:49;17.90;1.00
51619;DHT22;38518;53.164;5.430;2023-07-30T02:41:16;17.90;1.00
51619;DHT22;38518;53.164;5.430;2023-07-30T02:43:41;17.90;1.00
51619;DHT22;38518;53.164;5.430;2023-07-30T02:46:07;17.90;1.00
51619;DHT22;38518;53.164;5.430;2023-07-30T02:48:33;17.80;1.00
51619;DHT22;38518;53.164;5.430;2023-07-30T02:50:58;17.80;1.00
51619;DHT22;38518;53.164;5.430;2023-07-30T02:53:24;17.80;1.00
51619;DHT22;38518;53.164;5.430;2023-07-30T02:55:50;17.80;1.00
51619;DHT22;38518;53.164;5.430;2023-07-30T02:58:15;17.80;1.00
51619;DHT22;38518;53.164;5.430;2023-07-30T03:00:41;17.80;1.00
51619;DHT22;38518;53.164;5.430;2023-07-30T03:03:07;17.80;1.00
51619;DHT22;38518;53.164;5.430;2023-07-30T03:05:32;17.80;1.00
51619;DHT22;38518;53.164;5.430;2023-07-30T03:07:58;17.80;1.00
51619;DHT22;38518;53.164;5.430;2023-07-30T03:10:24;17.70;1.00
51619;DHT22;38518;53.164;5.430;2023-07-30T03:12:49;17.70;1.00
51619;DHT22;38518;53.164;5.430;2023-07-30T03:15:15;17.70;1.00
51619;DHT22;38518;53.164;5.430;2023-07-30T03:17:41;17.70;1.00
51619;DHT22;38518;53.164;5.430;2023-07-30T03:20:07;17.70;1.00
51619;DHT22;38518;53.164;5.430;2023-07-30T03:22:34;17.70;1.00
51619;DHT22;38518;53.164;5.430;2023-07-30T03:25:00;17.70;1.00
51619;DHT22;38518;53.164;5.430;2023-07-30T03:27:25;17.70;1.00
51619;DHT22;38518;53.164;5.430;2023-07-30T03:29:51;17.60;1.00
51619;DHT22;38518;53.164;5.430;2023-07-30T03:32:17;17.60;1.00
51619;DHT22;38518;53.164;5.430;2023-07-30T03:34:43;17.60;1.00
51619;DHT22;38518;53.164;5.430;2023-07-30T03:37:08;17.60;1.00
51619;DHT22;38518;53.164;5.430;2023-07-30T03:39:34;17.60;1.00
51619;DHT22;38518;53.164;5.430;2023-07-30T03:42:00;17.60;1.00
51619;DHT22;38518;53.164;5.430;2023-07-30T03:44:26;17.60;1.00
51619;DHT22;38518;53.164;5.430;2023-07-30T03:46:52;17.50;1.00
51619;DHT22;38518;53.164;5.430;2023-07-30T03:49:17;17.60;1.00
51619;DHT22;38518;53.164;5.430;2023-07-30T03:51:43;17.60;1.00
51619;DHT22;38518;53.164;5.430;2023-07-30T03:54:09;17.60;1.00
51619;DHT22;38518;53.164;5.430;2023-07-30T03:56:34;17.60;1.00
51619;DHT22;38518;53.164;5.430;2023-07-30T03:59:00;17.60;1.00
51619;DHT22;38518;53.164;5.430;2023-07-30T04:01:26;17.60;1.00
51619;DHT22;38518;53.164;5.430;2023-07-30T04:03:52;17.60;1.00
51619;DHT22;38518;53.164;5.430;2023-07-30T04:06:17;17.60;1.00
51619;DHT22;38518;53.164;5.430;2023-07-30T04:08:43;17.70;1.00
51619;DHT22;38518;53.164;5.430;2023-07-30T04:11:09;17.60;1.00
51619;DHT22;38518;53.164;5.430;2023-07-30T04:13:35;17.60;1.00
51619;DHT22;38518;53.164;5.430;2023-07-30T04:16:00;17.90;1.00
51619;DHT22;38518;53.164;5.430;2023-07-30T04:18:26;17.70;1.00
51619;DHT22;38518;53.164;5.430;2023-07-30T04:20:55;17.70;1.00
51619;DHT22;38518;53.164;5.430;2023-07-30T04:23:21;17.70;1.00
51619;DHT22;38518;53.164;5.430;2023-07-30T04:25:49;17.70;1.00
51619;DHT22;38518;53.164;5.430;2023-07-30T04:28:15;17.60;1.00
51619;DHT22;38518;53.164;5.430;2023-07-30T04:30:41;17.60;1.00
51619;DHT22;38518;53.164;5.430;2023-07-30T04:33:06;17.70;1.00
51619;DHT22;38518;53.164;5.430;2023-07-30T04:35:32;17.70;1.00
51619;DHT22;38518;53.164;5.430;2023-07-30T04:37:57;17.70;1.00
51619;DHT22;38518;53.164;5.430;2023-07-30T04:40:23;17.70;1.00
51619;DHT22;38518;53.164;5.430;2023-07-30T04:42:49;17.70;1.00
51619;DHT22;38518;53.164;5.430;2023-07-30T04:45:15;17.70;1.00
51619;DHT22;38518;53.164;5.430;2023-07-30T04:47:40;17.70;1.00
51619;DHT22;38518;53.164;5.430;2023-07-30T04:50:06;17.70;1.00
51619;DHT22;38518;53.164;5.430;2023-07-30T04:52:32;17.70;1.00
51619;DHT22;38518;53.164;5.430;2023-07-30T04:54:57;17.70;1.00
51619;DHT22;38518;53.164;5.430;2023-07-30T04:57:23;17.70;1.00
51619;DHT22;38518;53.164;5.430;2023-07-30T04:59:49;17.70;1.00
51619;DHT22;38518;53.164;5.430;2023-07-30T05:02:15;17.70;1.00
51619;DHT22;38518;53.164;5.430;2023-07-30T05:04:40;17.80;1.00
51619;DHT22;38518;53.164;5.430;2023-07-30T05:07:06;17.80;1.00
51619;DHT22;38518;53.164;5.430;2023-07-30T05:09:32;17.80;1.00
51619;DHT22;38518;53.164;5.430;2023-07-30T05:11:57;17.80;1.00
51619;DHT22;38518;53.164;5.430;2023-07-30T05:14:24;17.80;1.00
51619;DHT22;38518;53.164;5.430;2023-07-30T05:16:50;17.80;1.00
51619;DHT22;38518;53.164;5.430;2023-07-30T05:19:16;17.80;1.00
51619;DHT22;38518;53.164;5.430;2023-07-30T05:21:42;17.80;1.00
51619;DHT22;38518;53.164;5.430;2023-07-30T05:24:08;17.80;1.00
51619;DHT22;38518;53.164;5.430;2023-07-30T05:26:33;17.70;1.00
51619;DHT22;38518;53.164;5.430;2023-07-30T05:28:59;17.70;1.00
51619;DHT22;38518;53.164;5.430;2023-07-30T05:31:25;17.70;1.00
51619;DHT22;38518;53.164;5.430;2023-07-30T05:33:51;17.70;1.00
51619;DHT22;38518;53.164;5.430;2023-07-30T05:36:17;17.70;1.00
51619;DHT22;38518;53.164;5.430;2023-07-30T05:38:43;17.70;1.00
51619;DHT22;38518;53.164;5.430;2023-07-30T05:41:08;17.70;1.00
51619;DHT22;38518;53.164;5.430;2023-07-30T05:43:34;17.80;1.00
51619;DHT22;38518;53.164;5.430;2023-07-30T05:46:00;17.30;1.00
51619;DHT22;38518;53.164;5.430;2023-07-30T05:48:25;17.80;1.00
51619;DHT22;38518;53.164;5.430;2023-07-30T05:50:51;17.90;1.00
51619;DHT22;38518;53.164;5.430;2023-07-30T05:53:17;18.10;1.00
51619;DHT22;38518;53.164;5.430;2023-07-30T05:55:42;18.20;1.00
51619;DHT22;38518;53.164;5.430;2023-07-30T05:58:08;18.30;1.00
51619;DHT22;38518;53.164;5.430;2023-07-30T06:00:34;18.30;1.00
51619;DHT22;38518;53.164;5.430;2023-07-30T06:03:00;18.40;1.00
51619;DHT22;38518;53.164;5.430;2023-07-30T06:05:26;18.40;1.00
51619;DHT22;38518;53.164;5.430;2023-07-30T06:07:51;18.40;1.00
51619;DHT22;38518;53.164;5.430;2023-07-30T06:10:17;18.30;1.00
51619;DHT22;38518;53.164;5.430;2023-07-30T06:12:46;18.20;1.00
51619;DHT22;38518;53.164;5.430;2023-07-30T06:15:12;18.20;1.00
51619;DHT22;38518;53.164;5.430;2023-07-30T06:17:38;18.10;1.00
51619;DHT22;38518;53.164;5.430;2023-07-30T06:20:05;18.10;1.00
51619;DHT22;38518;53.164;5.430;2023-07-30T06:22:30;18.10;1.00
51619;DHT22;38518;53.164;5.430;2023-07-30T06:24:56;18.00;1.00
51619;DHT22;38518;53.164;5.430;2023-07-30T06:27:22;18.10;1.00
51619;DHT22;38518;53.164;5.430;2023-07-30T06:29:48;18.10;1.00
51619;DHT22;38518;53.164;5.430;2023-07-30T06:32:13;18.10;1.00
51619;DHT22;38518;53.164;5.430;2023-07-30T06:34:39;18.20;1.00
51619;DHT22;38518;53.164;5.430;2023-07-30T06:37:05;18.30;1.00
51619;DHT22;38518;53.164;5.430;2023-07-30T06:39:30;18.50;1.00
51619;DHT22;38518;53.164;5.430;2023-07-30T06:41:56;18.50;1.00
51619;DHT22;38518;53.164;5.430;2023-07-30T06:44:22;18.70;1.00
51619;DHT22;38518;53.164;5.430;2023-07-30T06:46:49;18.70;1.00
51619;DHT22;38518;53.164;5.430;2023-07-30T06:49:15;18.80;1.00
51619;DHT22;38518;53.164;5.430;2023-07-30T06:51:41;18.70;1.00
51619;DHT22;38518;53.164;5.430;2023-07-30T06:54:07;18.70;1.00
51619;DHT22;38518;53.164;5.430;2023-07-30T06:56:32;18.70;1.00
51619;DHT22;38518;53.164;5.430;2023-07-30T06:58:58;18.60;1.00
51619;DHT22;38518;53.164;5.430;2023-07-30T07:01:24;18.60;1.00
51619;DHT22;38518;53.164;5.430;2023-07-30T07:03:49;18.60;1.00
51619;DHT22;38518;53.164;5.430;2023-07-30T07:06:15;18.70;1.00
51619;DHT22;38518;53.164;5.430;2023-07-30T07:08:41;18.80;1.00
51619;DHT22;38518;53.164;5.430;2023-07-30T07:11:06;19.00;1.00
51619;DHT22;38518;53.164;5.430;2023-07-30T07:13:32;19.30;1.00
51619;DHT22;38518;53.164;5.430;2023-07-30T07:15:58;19.60;1.00
51619;DHT22;38518;53.164;5.430;2023-07-30T07:18:24;19.60;1.00
51619;DHT22;38518;53.164;5.430;2023-07-30T07:20:49;19.70;1.00
51619;DHT22;38518;53.164;5.430;2023-07-30T07:23:15;19.70;1.00
51619;DHT22;38518;53.164;5.430;2023-07-30T07:25:41;19.80;1.00
51619;DHT22;38518;53.164;5.430;2023-07-30T07:28:06;19.80;1.00
51619;DHT22;38518;53.164;5.430;2023-07-30T07:30:35;19.70;1.00
51619;DHT22;38518;53.164;5.430;2023-07-30T07:33:02;19.70;1.00
51619;DHT22;38518;53.164;5.430;2023-07-30T07:35:27;19.30;1.00
51619;DHT22;38518;53.164;5.430;2023-07-30T07:37:53;19.20;1.00
51619;DHT22;38518;53.164;5.430;2023-07-30T07:40:19;19.00;1.00
51619;DHT22;38518;53.164;5.430;2023-07-30T07:42:44;19.10;1.00
51619;DHT22;38518;53.164;5.430;2023-07-30T07:45:10;19.10;1.00
51619;DHT22;38518;53.164;5.430;2023-07-30T07:47:36;19.20;1.00
51619;DHT22;38518;53.164;5.430;2023-07-30T07:50:01;18.90;1.00
51619;DHT22;38518;53.164;5.430;2023-07-30T07:52:27;18.90;1.00
51619;DHT22;38518;53.164;5.430;2023-07-30T07:54:53;18.70;1.00
51619;DHT22;38518;53.164;5.430;2023-07-30T07:57:18;18.70;1.00
51619;DHT22;38518;53.164;5.430;2023-07-30T07:59:44;18.70;1.00
51619;DHT22;38518;53.164;5.430;2023-07-30T08:02:14;18.80;1.00
51619;DHT22;38518;53.164;5.430;2023-07-30T08:04:40;18.60;1.00
51619;DHT22;38518;53.164;5.430;2023-07-30T08:07:05;18.40;1.00
51619;DHT22;38518;53.164;5.430;2023-07-30T08:09:31;18.80;1.00
51619;DHT22;38518;53.164;5.430;2023-07-30T08:11:57;18.80;1.00
51619;DHT22;38518;53.164;5.430;2023-07-30T08:14:24;18.70;1.00
51619;DHT22;38518;53.164;5.430;2023-07-30T08:16:49;19.10;1.00
51619;DHT22;38518;53.164;5.430;2023-07-30T08:19:15;19.00;1.00
51619;DHT22;38518;53.164;5.430;2023-07-30T08:21:41;19.10;1.00
51619;DHT22;38518;53.164;5.430;2023-07-30T08:24:06;19.70;1.00
51619;DHT22;38518;53.164;5.430;2023-07-30T08:26:32;19.70;1.00
51619;DHT22;38518;53.164;5.430;2023-07-30T08:28:58;19.90;1.00
51619;DHT22;38518;53.164;5.430;2023-07-30T08:31:24;20.50;1.00
51619;DHT22;38518;53.164;5.430;2023-07-30T08:33:49;20.50;1.00
51619;DHT22;38518;53.164;5.430;2023-07-30T08:36:15;20.50;1.00
51619;DHT22;38518;53.164;5.430;2023-07-30T08:38:41;20.90;1.00
51619;DHT22;38518;53.164;5.430;2023-07-30T08:41:07;20.70;1.00
51619;DHT22;38518;53.164;5.430;2023-07-30T08:43:34;20.70;1.00
51619;DHT22;38518;53.164;5.430;2023-07-30T08:46:00;20.60;1.00
51619;DHT22;38518;53.164;5.430;2023-07-30T08:48:26;20.80;1.00
51619;DHT22;38518;53.164;5.430;2023-07-30T08:50:52;20.70;1.00
51619;DHT22;38518;53.164;5.430;2023-07-30T08:53:22;21.10;1.00
51619;DHT22;38518;53.164;5.430;2023-07-30T08:55:48;21.30;1.00
51619;DHT22;38518;53.164;5.430;2023-07-30T08:58:14;21.30;1.00
51619;DHT22;38518;53.164;5.430;2023-07-30T09:00:46;21.50;1.00
51619;DHT22;38518;53.164;5.430;2023-07-30T09:03:15;21.80;1.00
51619;DHT22;38518;53.164;5.430;2023-07-30T09:05:46;22.20;1.00
51619;DHT22;38518;53.164;5.430;2023-07-30T09:08:12;22.40;1.00
51619;DHT22;38518;53.164;5.430;2023-07-30T09:10:38;22.50;1.00
51619;DHT22;38518;53.164;5.430;2023-07-30T09:13:03;22.70;1.00
51619;DHT22;38518;53.164;5.430;2023-07-30T09:15:35;22.50;1.00
51619;DHT22;38518;53.164;5.430;2023-07-30T09:18:06;22.30;1.00
51619;DHT22;38518;53.164;5.430;2023-07-30T09:20:38;22.50;1.00
51619;DHT22;38518;53.164;5.430;2023-07-30T09:23:05;22.50;1.00
51619;DHT22;38518;53.164;5.430;2023-07-30T09:25:32;22.30;1.00
51619;DHT22;38518;53.164;5.430;2023-07-30T09:27:58;22.40;1.00
51619;DHT22;38518;53.164;5.430;2023-07-30T09:30:26;22.80;1.00
51619;DHT22;38518;53.164;5.430;2023-07-30T09:32:56;23.30;1.00
51619;DHT22;38518;53.164;5.430;2023-07-30T09:35:24;23.50;1.00
51619;DHT22;38518;53.164;5.430;2023-07-30T09:38:00;23.80;1.00
51619;DHT22;38518;53.164;5.430;2023-07-30T09:40:37;24.10;1.00
51619;DHT22;38518;53.164;5.430;2023-07-30T09:43:04;24.10;1.00
51619;DHT22;38518;53.164;5.430;2023-07-30T09:45:34;24.10;1.00
51619;DHT22;38518;53.164;5.430;2023-07-30T09:48:03;24.30;1.00
51619;DHT22;38518;53.164;5.430;2023-07-30T09:50:29;25.40;1.00
51619;DHT22;38518;53.164;5.430;2023-07-30T09:52:57;24.50;1.00
51619;DHT22;38518;53.164;5.430;2023-07-30T09:55:23;24.40;1.00
51619;DHT22;38518;53.164;5.430;2023-07-30T09:57:49;24.20;1.00
51619;DHT22;38518;53.164;5.430;2023-07-30T10:00:15;24.30;1.00
51619;DHT22;38518;53.164;5.430;2023-07-30T10:02:43;24.50;1.00
51619;DHT22;38518;53.164;5.430;2023-07-30T10:05:12;24.30;1.00
51619;DHT22;38518;53.164;5.430;2023-07-30T10:07:50;23.90;1.00
51619;DHT22;38518;53.164;5.430;2023-07-30T10:10:18;24.00;1.00
51619;DHT22;38518;53.164;5.430;2023-07-30T10:12:44;24.20;1.00
51619;DHT22;38518;53.164;5.430;2023-07-30T10:15:10;24.00;1.00
51619;DHT22;38518;53.164;5.430;2023-07-30T10:17:36;23.50;1.00
51619;DHT22;38518;53.164;5.430;2023-07-30T10:20:22;23.00;1.00
51619;DHT22;38518;53.164;5.430;2023-07-30T10:22:55;23.10;1.00
51619;DHT22;38518;53.164;5.430;2023-07-30T10:25:22;23.30;1.00
51619;DHT22;38518;53.164;5.430;2023-07-30T10:27:50;23.70;1.00
51619;DHT22;38518;53.164;5.430;2023-07-30T10:30:17;24.10;1.00
51619;DHT22;38518;53.164;5.430;2023-07-30T10:35:43;25.00;1.00
51619;DHT22;38518;53.164;5.430;2023-07-30T10:38:20;25.60;1.00
51619;DHT22;38518;53.164;5.430;2023-07-30T10:41:08;25.80;1.00
51619;DHT22;38518;53.164;5.430;2023-07-30T10:43:41;25.30;1.00
51619;DHT22;38518;53.164;5.430;2023-07-30T10:46:09;24.70;1.00
51619;DHT22;38518;53.164;5.430;2023-07-30T10:48:40;23.90;1.00
51619;DHT22;38518;53.164;5.430;2023-07-30T10:51:08;23.40;1.00
51619;DHT22;38518;53.164;5.430;2023-07-30T10:53:34;23.70;1.00
51619;DHT22;38518;53.164;5.430;2023-07-30T10:56:06;23.90;1.00
51619;DHT22;38518;53.164;5.430;2023-07-30T10:58:33;24.10;1.00
51619;DHT22;38518;53.164;5.430;2023-07-30T11:01:01;24.40;1.00
51619;DHT22;38518;53.164;5.430;2023-07-30T11:03:28;24.40;1.00
51619;DHT22;38518;53.164;5.430;2023-07-30T11:05:54;24.20;1.00
51619;DHT22;38518;53.164;5.430;2023-07-30T11:10:59;24.80;1.00
51619;DHT22;38518;53.164;5.430;2023-07-30T11:13:26;25.30;1.00
51619;DHT22;38518;53.164;5.430;2023-07-30T11:15:52;25.70;1.00
51619;DHT22;38518;53.164;5.430;2023-07-30T11:18:20;26.10;1.00
51619;DHT22;38518;53.164;5.430;2023-07-30T11:20:46;26.40;1.00
51619;DHT22;38518;53.164;5.430;2023-07-30T11:23:22;26.70;1.00
51619;DHT22;38518;53.164;5.430;2023-07-30T11:25:49;27.00;1.00
51619;DHT22;38518;53.164;5.430;2023-07-30T11:28:31;27.20;1.00
51619;DHT22;38518;53.164;5.430;2023-07-30T11:31:11;27.30;1.00
51619;DHT22;38518;53.164;5.430;2023-07-30T11:33:46;27.50;1.00
51619;DHT22;38518;53.164;5.430;2023-07-30T11:36:17;27.60;1.00
51619;DHT22;38518;53.164;5.430;2023-07-30T11:38:45;27.60;1.00
51619;DHT22;38518;53.164;5.430;2023-07-30T11:41:11;27.60;1.00
51619;DHT22;38518;53.164;5.430;2023-07-30T11:43:41;27.50;1.00
51619;DHT22;38518;53.164;5.430;2023-07-30T11:48:36;27.70;1.00
51619;DHT22;38518;53.164;5.430;2023-07-30T11:51:02;27.70;1.00
51619;DHT22;38518;53.164;5.430;2023-07-30T11:53:45;27.60;1.00
51619;DHT22;38518;53.164;5.430;2023-07-30T11:56:22;27.60;1.00
51619;DHT22;38518;53.164;5.430;2023-07-30T11:58:49;27.40;1.00
51619;DHT22;38518;53.164;5.430;2023-07-30T12:01:16;27.70;1.00
51619;DHT22;38518;53.164;5.430;2023-07-30T12:03:42;27.60;1.00
51619;DHT22;38518;53.164;5.430;2023-07-30T12:06:09;26.70;1.00
51619;DHT22;38518;53.164;5.430;2023-07-30T12:08:35;25.90;1.00
51619;DHT22;38518;53.164;5.430;2023-07-30T12:11:09;25.50;1.00
51619;DHT22;38518;53.164;5.430;2023-07-30T12:13:45;25.10;1.00
51619;DHT22;38518;53.164;5.430;2023-07-30T12:16:11;25.20;1.00
51619;DHT22;38518;53.164;5.430;2023-07-30T12:18:38;25.70;1.00
51619;DHT22;38518;53.164;5.430;2023-07-30T12:21:04;26.20;1.00
51619;DHT22;38518;53.164;5.430;2023-07-30T12:23:32;26.20;1.00
51619;DHT22;38518;53.164;5.430;2023-07-30T12:25:58;25.80;1.00
51619;DHT22;38518;53.164;5.430;2023-07-30T12:28:23;25.50;1.00
51619;DHT22;38518;53.164;5.430;2023-07-30T12:30:49;25.60;1.00
51619;DHT22;38518;53.164;5.430;2023-07-30T12:33:15;25.60;1.00
51619;DHT22;38518;53.164;5.430;2023-07-30T12:35:40;25.40;1.00
51619;DHT22;38518;53.164;5.430;2023-07-30T12:38:06;25.00;1.00
51619;DHT22;38518;53.164;5.430;2023-07-30T12:40:32;24.70;1.00
51619;DHT22;38518;53.164;5.430;2023-07-30T12:43:02;24.50;1.00
51619;DHT22;38518;53.164;5.430;2023-07-30T12:45:29;24.00;1.00
51619;DHT22;38518;53.164;5.430;2023-07-30T12:47:55;23.50;1.00
51619;DHT22;38518;53.164;5.430;2023-07-30T12:50:21;23.10;1.00
51619;DHT22;38518;53.164;5.430;2023-07-30T12:52:46;23.20;1.00
51619;DHT22;38518;53.164;5.430;2023-07-30T12:55:12;23.40;1.00
51619;DHT22;38518;53.164;5.430;2023-07-30T12:57:38;23.30;1.00
51619;DHT22;38518;53.164;5.430;2023-07-30T13:00:03;23.30;1.00
51619;DHT22;38518;53.164;5.430;2023-07-30T13:02:30;23.90;1.00
51619;DHT22;38518;53.164;5.430;2023-07-30T13:04:59;24.60;1.00
51619;DHT22;38518;53.164;5.430;2023-07-30T13:07:25;24.90;1.00
51619;DHT22;38518;53.164;5.430;2023-07-30T13:10:06;24.90;1.00
51619;DHT22;38518;53.164;5.430;2023-07-30T13:12:32;25.20;1.00
51619;DHT22;38518;53.164;5.430;2023-07-30T13:14:58;25.60;1.00
51619;DHT22;38518;53.164;5.430;2023-07-30T13:17:24;26.30;1.00
51619;DHT22;38518;53.164;5.430;2023-07-30T13:19:50;26.70;1.00
51619;DHT22;38518;53.164;5.430;2023-07-30T13:22:15;26.60;1.00
51619;DHT22;38518;53.164;5.430;2023-07-30T13:24:41;26.60;1.00
51619;DHT22;38518;53.164;5.430;2023-07-30T13:27:07;27.00;1.00
51619;DHT22;38518;53.164;5.430;2023-07-30T13:29:32;27.20;1.00
51619;DHT22;38518;53.164;5.430;2023-07-30T13:31:58;26.80;1.00
51619;DHT22;38518;53.164;5.430;2023-07-30T13:34:24;26.20;1.00
51619;DHT22;38518;53.164;5.430;2023-07-30T13:36:50;25.50;1.00
51619;DHT22;38518;53.164;5.430;2023-07-30T13:39:16;24.70;1.00
51619;DHT22;38518;53.164;5.430;2023-07-30T13:41:41;24.10;1.00
51619;DHT22;38518;53.164;5.430;2023-07-30T13:44:07;23.90;1.00
51619;DHT22;38518;53.164;5.430;2023-07-30T13:46:33;23.60;1.00
51619;DHT22;38518;53.164;5.430;2023-07-30T13:48:58;23.60;1.00
51619;DHT22;38518;53.164;5.430;2023-07-30T13:51:24;23.80;1.00
51619;DHT22;38518;53.164;5.430;2023-07-30T13:53:50;24.20;1.00
51619;DHT22;38518;53.164;5.430;2023-07-30T13:56:16;24.50;1.00
51619;DHT22;38518;53.164;5.430;2023-07-30T13:58:41;24.30;1.00
51619;DHT22;38518;53.164;5.430;2023-07-30T14:01:07;24.00;1.00
51619;DHT22;38518;53.164;5.430;2023-07-30T14:03:35;23.50;1.00
51619;DHT22;38518;53.164;5.430;2023-07-30T14:06:00;23.10;1.00
51619;DHT22;38518;53.164;5.430;2023-07-30T14:08:26;22.80;1.00
51619;DHT22;38518;53.164;5.430;2023-07-30T14:10:52;22.70;1.00
51619;DHT22;38518;53.164;5.430;2023-07-30T14:13:20;22.80;1.00
51619;DHT22;38518;53.164;5.430;2023-07-30T14:15:46;22.80;1.00
51619;DHT22;38518;53.164;5.430;2023-07-30T14:18:12;22.80;1.00
51619;DHT22;38518;53.164;5.430;2023-07-30T14:20:37;22.70;1.00
51619;DHT22;38518;53.164;5.430;2023-07-30T14:23:04;22.60;1.00
51619;DHT22;38518;53.164;5.430;2023-07-30T14:25:29;23.30;1.00
51619;DHT22;38518;53.164;5.430;2023-07-30T14:27:55;24.10;1.00
51619;DHT22;38518;53.164;5.430;2023-07-30T14:30:21;24.40;1.00
51619;DHT22;38518;53.164;5.430;2023-07-30T14:32:46;24.50;1.00
51619;DHT22;38518;53.164;5.430;2023-07-30T14:35:12;24.10;1.00
51619;DHT22;38518;53.164;5.430;2023-07-30T14:37:38;23.90;1.00
51619;DHT22;38518;53.164;5.430;2023-07-30T14:40:04;23.90;1.00
51619;DHT22;38518;53.164;5.430;2023-07-30T14:42:30;24.20;1.00
51619;DHT22;38518;53.164;5.430;2023-07-30T14:44:55;24.00;1.00
51619;DHT22;38518;53.164;5.430;2023-07-30T14:47:21;23.60;1.00
51619;DHT22;38518;53.164;5.430;2023-07-30T14:49:48;23.40;1.00
51619;DHT22;38518;53.164;5.430;2023-07-30T14:52:13;23.70;1.00
51619;DHT22;38518;53.164;5.430;2023-07-30T14:54:39;23.70;1.00
51619;DHT22;38518;53.164;5.430;2023-07-30T14:57:05;23.50;1.00
51619;DHT22;38518;53.164;5.430;2023-07-30T14:59:31;23.20;1.00
51619;DHT22;38518;53.164;5.430;2023-07-30T15:01:57;22.80;1.00
51619;DHT22;38518;53.164;5.430;2023-07-30T15:04:22;22.40;1.00
51619;DHT22;38518;53.164;5.430;2023-07-30T15:06:49;22.20;1.00
51619;DHT22;38518;53.164;5.430;2023-07-30T15:09:14;21.90;1.00
51619;DHT22;38518;53.164;5.430;2023-07-30T15:11:40;21.70;1.00
51619;DHT22;38518;53.164;5.430;2023-07-30T15:14:06;21.50;1.00
51619;DHT22;38518;53.164;5.430;2023-07-30T15:16:32;21.30;1.00
51619;DHT22;38518;53.164;5.430;2023-07-30T15:18:57;21.10;1.00
51619;DHT22;38518;53.164;5.430;2023-07-30T15:21:23;20.90;1.00
51619;DHT22;38518;53.164;5.430;2023-07-30T15:23:49;20.80;1.00
51619;DHT22;38518;53.164;5.430;2023-07-30T15:26:15;21.30;1.00
51619;DHT22;38518;53.164;5.430;2023-07-30T15:28:41;22.40;1.00
51619;DHT22;38518;53.164;5.430;2023-07-30T15:31:07;23.40;1.00
51619;DHT22;38518;53.164;5.430;2023-07-30T15:33:33;23.70;1.00
51619;DHT22;38518;53.164;5.430;2023-07-30T15:35:58;24.10;1.00
51619;DHT22;38518;53.164;5.430;2023-07-30T15:38:24;24.40;1.00
51619;DHT22;38518;53.164;5.430;2023-07-30T15:40:50;24.40;1.00
51619;DHT22;38518;53.164;5.430;2023-07-30T15:43:15;23.90;1.00
51619;DHT22;38518;53.164;5.430;2023-07-30T15:45:41;23.40;1.00
51619;DHT22;38518;53.164;5.430;2023-07-30T15:48:09;23.00;1.00
51619;DHT22;38518;53.164;5.430;2023-07-30T15:50:34;22.70;1.00